Confluence, PA

11:40 AM EST on December 08, 2016 (GMT -0500)
| | Change Station

Elev -9999 ft 0.00 °N, 0.00 °E | Updated 5 minutes ago

Mostly Cloudy
Mostly Cloudy
°F
Feels Like °F
N
Wind Variable Wind from North
Gusts mph

Today
High -- | Low -- °F
--% Chance of Precip.
Yesterday
High -- | Low -- °F
Precip. -- in
Pressure 29.97 in
Visibility 10.0 miles
Clouds Mostly Cloudy 2600 ft
Dew Point Not available.
Humidity Not available.
Rainfall --
Snow Depth Not available.
7:26 AM 4:52 PM
Waxing Gibbous, 65% visible
METAR K2G4 081625Z AUTO 26007G21KT 222V312 10SM BKN026 M02/M07 A2997 RMK AO1
Pressure 29.97 in
Visibility 10.0 miles
Clouds Mostly Cloudy 2600 ft
Dew Point Not available.
Humidity Not available.
Rainfall --
Snow Depth Not available.
7:26 AM 4:52 PM
Waxing Gibbous, 65% visible
METAR K2G4 081625Z AUTO 26007G21KT 222V312 10SM BKN026 M02/M07 A2997 RMK AO1

10-Day Weather Forecast

Almanac

Astronomy

Dec. 08, 2016 Rise Set
Actual Time
Civil Twilight
Nautical Twilight
Astronomical Twilight
Moon
Length of Visible Light
Length of Day
Tomorrow will be .
, % of the Moon is Illuminated

Today's Extremes

State Highs State Lows

Community

WunderPhotos

Upload Photos

1,956,274 photos uploaded!

WunderBlog® & News

Nearby

Air Quality

  Air Quality AQ Index Pollutant
Not available.

Snow Depth

Station Depth Elevation

Earthquake Activity

City Distance Mag. Time & Date
Minimum magnitude displayed is 2.5.

Coastal Water Temperatures

Place Temperature

Stations

Nearby Weather Stations

Station Location Temp. Windchill Dew Point Humidity Wind Precip. Elev Updated Type
                   

Watches & Warnings

There are currently no watches in effect.